createdAt,value
2023-02-25T00:01:13.331Z,15.58
2023-02-25T00:03:44.433Z,15.72
2023-02-25T00:06:36.426Z,15.68
2023-02-25T00:09:07.736Z,15.70
2023-02-25T00:11:43.620Z,15.71
2023-02-25T00:14:14.015Z,15.72
2023-02-25T00:16:42.858Z,15.77
2023-02-25T00:19:18.084Z,15.75
2023-02-25T00:21:45.726Z,15.73
2023-02-25T00:24:18.806Z,15.64
2023-02-25T00:26:46.249Z,15.68
2023-02-25T00:29:19.576Z,15.62
2023-02-25T00:31:47.133Z,15.60
2023-02-25T00:34:18.443Z,15.59
2023-02-25T00:36:53.194Z,15.62
2023-02-25T00:39:42.233Z,15.58
2023-02-25T00:42:13.048Z,15.64
2023-02-25T00:44:50.223Z,15.55
2023-02-25T00:47:22.451Z,15.56
2023-02-25T00:49:49.915Z,15.52
2023-02-25T00:52:42.605Z,15.50
2023-02-25T00:55:13.928Z,15.53
2023-02-25T00:57:50.015Z,15.49
2023-02-25T01:00:19.902Z,15.46
2023-02-25T01:02:49.935Z,15.48
2023-02-25T01:05:23.370Z,15.38
2023-02-25T01:08:00.290Z,15.31
2023-02-25T01:10:33.195Z,15.21
2023-02-25T01:13:08.019Z,15.34
2023-02-25T01:15:46.015Z,15.34
2023-02-25T01:18:31.458Z,15.27
2023-02-25T01:20:59.007Z,15.25
2023-02-25T01:23:30.579Z,15.27
2023-02-25T01:26:00.664Z,15.26
2023-02-25T01:28:37.439Z,15.19
2023-02-25T01:31:05.185Z,15.16
2023-02-25T01:33:38.850Z,15.19
2023-02-25T01:36:06.910Z,15.09
2023-02-25T01:38:34.646Z,15.06
2023-02-25T01:41:05.303Z,15.00
2023-02-25T01:43:39.847Z,15.16
2023-02-25T01:46:14.487Z,15.06
2023-02-25T01:48:49.814Z,15.10
2023-02-25T01:51:28.039Z,15.08
2023-02-25T01:54:23.055Z,15.15
2023-02-25T01:56:54.825Z,15.15
2023-02-25T01:59:30.926Z,15.16
2023-02-25T02:02:05.047Z,15.20
2023-02-25T02:04:41.306Z,15.09
2023-02-25T02:07:14.849Z,15.16
2023-02-25T02:09:56.168Z,15.13
2023-02-25T02:12:44.894Z,15.11
2023-02-25T02:15:15.960Z,15.16
2023-02-25T02:18:03.523Z,15.13
2023-02-25T02:21:08.902Z,15.13
2023-02-25T02:23:51.532Z,15.13
2023-02-25T02:26:39.762Z,15.10
2023-02-25T02:29:28.686Z,15.08
2023-02-25T02:32:20.415Z,15.09
2023-02-25T02:35:20.074Z,15.09
2023-02-25T02:38:15.316Z,15.14
2023-02-25T02:41:18.025Z,15.22
2023-02-25T02:44:02.021Z,15.25
2023-02-25T02:46:41.201Z,15.25
2023-02-25T02:49:35.027Z,15.17
2023-02-25T02:52:23.027Z,15.24
2023-02-25T02:55:13.608Z,15.22
2023-02-25T02:57:50.083Z,15.23
2023-02-25T03:00:40.952Z,15.26
2023-02-25T03:03:17.092Z,15.27
2023-02-25T03:05:49.471Z,15.29
2023-02-25T03:08:29.733Z,15.31
2023-02-25T03:10:59.190Z,15.34
2023-02-25T03:13:29.348Z,15.38
2023-02-25T03:16:00.408Z,15.40
2023-02-25T03:18:39.214Z,15.38
2023-02-25T03:21:30.225Z,15.35
2023-02-25T03:24:09.272Z,15.39
2023-02-25T03:26:47.327Z,15.41
2023-02-25T03:29:24.093Z,15.33
2023-02-25T03:31:55.077Z,15.33
2023-02-25T03:34:32.436Z,15.34
2023-02-25T03:37:16.342Z,15.30
2023-02-25T03:39:48.750Z,15.26
2023-02-25T03:42:27.703Z,15.15
2023-02-25T03:44:59.469Z,15.23
2023-02-25T03:47:34.825Z,15.19
2023-02-25T03:50:16.386Z,15.18
2023-02-25T03:52:48.473Z,15.19
2023-02-25T03:55:45.794Z,15.12
2023-02-25T03:58:19.221Z,15.14
2023-02-25T04:00:56.959Z,15.05
2023-02-25T04:03:32.156Z,15.04
2023-02-25T04:06:07.086Z,15.03
2023-02-25T04:08:38.429Z,14.98
2023-02-25T04:11:10.515Z,14.96
2023-02-25T04:13:44.073Z,14.95
2023-02-25T04:16:11.856Z,14.93
2023-02-25T04:18:42.717Z,14.84
2023-02-25T04:21:39.402Z,14.80
2023-02-25T04:24:18.285Z,14.79
2023-02-25T04:26:45.506Z,14.75
2023-02-25T04:29:18.589Z,14.78
2023-02-25T04:31:46.349Z,14.79
2023-02-25T04:34:13.725Z,14.81
2023-02-25T04:36:48.683Z,14.74
2023-02-25T04:39:20.921Z,14.75
2023-02-25T04:41:54.582Z,14.79
2023-02-25T04:44:29.724Z,14.75
2023-02-25T04:46:59.813Z,14.83
2023-02-25T04:49:30.170Z,14.85
2023-02-25T04:52:04.731Z,14.78
2023-02-25T04:54:36.722Z,14.81
2023-02-25T04:57:04.150Z,14.82
2023-02-25T04:59:31.509Z,14.83
2023-02-25T05:02:07.875Z,14.87
2023-02-25T05:04:39.755Z,14.84
2023-02-25T05:07:14.928Z,14.76
2023-02-25T05:09:42.573Z,14.76
2023-02-25T05:12:17.799Z,14.77
2023-02-25T05:14:51.509Z,14.69
2023-02-25T05:17:32.237Z,14.68
2023-02-25T05:20:15.045Z,14.63
2023-02-25T05:22:42.780Z,14.64
2023-02-25T05:25:15.317Z,14.58
2023-02-25T05:28:05.968Z,14.58
2023-02-25T05:30:43.493Z,14.51
2023-02-25T05:33:18.036Z,14.51
2023-02-25T05:35:53.788Z,14.46
2023-02-25T05:38:22.067Z,14.41
2023-02-25T05:40:49.881Z,14.24
2023-02-25T05:43:21.581Z,14.28
2023-02-25T05:46:02.737Z,14.32
2023-02-25T05:48:41.602Z,14.32
2023-02-25T05:51:22.804Z,14.29
2023-02-25T05:54:02.657Z,14.31
2023-02-25T05:56:32.301Z,14.23
2023-02-25T05:59:06.170Z,14.29
2023-02-25T06:01:41.377Z,14.21
2023-02-25T06:04:12.812Z,14.19
2023-02-25T06:06:57.400Z,14.19
2023-02-25T06:09:27.586Z,14.20
2023-02-25T06:12:02.486Z,14.14
2023-02-25T06:14:41.820Z,14.17
2023-02-25T06:17:18.155Z,14.15
2023-02-25T06:19:55.017Z,14.09
2023-02-25T06:22:37.272Z,14.16
2023-02-25T06:25:16.673Z,14.13
2023-02-25T06:27:59.677Z,14.12
2023-02-25T06:30:30.865Z,14.08
2023-02-25T06:33:07.791Z,14.05
2023-02-25T06:35:43.921Z,14.03
2023-02-25T06:38:20.436Z,14.04
2023-02-25T06:40:58.417Z,14.05
2023-02-25T06:43:35.298Z,14.00
2023-02-25T06:46:30.816Z,14.05
2023-02-25T06:49:01.763Z,13.90
2023-02-25T06:51:29.406Z,13.98
2023-02-25T06:53:58.745Z,14.05
2023-02-25T06:56:36.796Z,14.06
2023-02-25T06:59:14.402Z,14.05
2023-02-25T07:02:03.739Z,14.09
2023-02-25T07:05:06.176Z,14.14
2023-02-25T07:07:42.023Z,14.15
2023-02-25T07:10:22.910Z,14.18
2023-02-25T07:13:01.510Z,14.14
2023-02-25T07:15:39.884Z,14.18
2023-02-25T07:18:16.915Z,14.31
2023-02-25T07:21:18.908Z,14.30
2023-02-25T07:23:54.942Z,14.38
2023-02-25T07:26:33.684Z,14.41
2023-02-25T07:29:09.112Z,14.49
2023-02-25T07:31:48.895Z,14.54
2023-02-25T07:34:27.761Z,14.60
2023-02-25T07:37:10.878Z,14.62
2023-02-25T07:39:49.276Z,14.68
2023-02-25T07:42:20.703Z,14.68
2023-02-25T07:44:52.917Z,14.67
2023-02-25T07:47:32.024Z,14.65
2023-02-25T07:50:02.060Z,14.64
2023-02-25T07:52:46.439Z,14.66
2023-02-25T07:55:25.543Z,14.75
2023-02-25T07:57:59.412Z,14.83
2023-02-25T08:00:56.034Z,14.83
2023-02-25T08:03:26.616Z,14.86
2023-02-25T08:05:58.057Z,14.86
2023-02-25T08:08:28.629Z,14.88
2023-02-25T08:11:09.414Z,14.83
2023-02-25T08:13:44.099Z,14.76
2023-02-25T08:16:14.652Z,14.83
2023-02-25T08:18:47.951Z,14.85
2023-02-25T08:21:26.008Z,14.89
2023-02-25T08:23:54.460Z,14.93
2023-02-25T08:26:25.736Z,14.97
2023-02-25T08:29:05.518Z,14.96
2023-02-25T08:31:34.072Z,14.80
2023-02-25T08:34:13.542Z,14.64
2023-02-25T08:36:45.509Z,14.83
2023-02-25T08:39:16.963Z,14.75
2023-02-25T08:41:49.751Z,14.65
2023-02-25T08:44:23.962Z,14.60
2023-02-25T08:47:01.901Z,14.61
2023-02-25T08:49:45.582Z,14.60
2023-02-25T08:52:22.026Z,14.64
2023-02-25T08:54:54.238Z,14.77
2023-02-25T08:57:26.703Z,14.58
2023-02-25T09:00:05.579Z,14.68
2023-02-25T09:02:41.955Z,14.85
2023-02-25T09:05:20.809Z,14.91
2023-02-25T09:07:58.109Z,14.92
2023-02-25T09:10:48.219Z,14.94
2023-02-25T09:13:23.264Z,15.02
2023-02-25T09:16:03.045Z,15.07
2023-02-25T09:18:33.933Z,15.10
2023-02-25T09:21:04.600Z,15.08
2023-02-25T09:23:43.957Z,15.16
2023-02-25T09:26:23.893Z,15.21
2023-02-25T09:29:06.972Z,15.31
2023-02-25T09:31:43.560Z,15.41
2023-02-25T09:34:15.572Z,15.50
2023-02-25T09:37:07.511Z,15.57
2023-02-25T09:39:34.855Z,15.62
2023-02-25T09:42:18.390Z,15.60
2023-02-25T09:44:47.504Z,15.70
2023-02-25T09:47:32.611Z,15.74
2023-02-25T09:50:19.799Z,15.74
2023-02-25T09:53:10.297Z,15.78
2023-02-25T09:55:42.939Z,15.85
2023-02-25T09:58:26.529Z,15.88
2023-02-25T10:01:30.171Z,15.98
2023-02-25T10:04:13.373Z,16.01
2023-02-25T10:06:56.694Z,16.02
2023-02-25T10:09:37.796Z,16.05
2023-02-25T10:12:42.998Z,15.97
2023-02-25T10:15:29.058Z,15.94
2023-02-25T10:18:36.355Z,15.90
2023-02-25T10:27:51.064Z,15.94
2023-02-25T10:30:33.342Z,15.90
2023-02-25T10:33:20.980Z,16.01
2023-02-25T10:36:13.921Z,15.95
2023-02-25T10:39:04.485Z,16.05
2023-02-25T10:41:49.496Z,16.14
2023-02-25T10:44:20.405Z,16.14
2023-02-25T10:47:10.788Z,16.14
2023-02-25T10:49:40.753Z,16.32
2023-02-25T10:52:21.347Z,16.35
2023-02-25T10:54:52.129Z,16.44
2023-02-25T10:57:33.066Z,16.38
2023-02-25T11:00:06.736Z,16.39
2023-02-25T11:02:43.492Z,16.24
2023-02-25T11:05:41.328Z,16.31
2023-02-25T11:08:31.856Z,16.28
2023-02-25T11:11:25.687Z,16.47
2023-02-25T11:14:16.992Z,16.53
2023-02-25T11:16:46.096Z,16.61
2023-02-25T11:19:32.008Z,16.59
2023-02-25T11:22:06.765Z,16.60
2023-02-25T11:24:37.852Z,16.64
2023-02-25T11:27:08.442Z,16.71
2023-02-25T11:29:40.049Z,16.76
2023-02-25T11:32:22.902Z,16.82
2023-02-25T11:35:05.878Z,16.84
2023-02-25T11:37:51.039Z,16.94
2023-02-25T11:40:30.884Z,17.04
2023-02-25T11:43:21.178Z,17.04
2023-02-25T11:45:53.606Z,17.18
2023-02-25T11:48:48.167Z,17.24
2023-02-25T11:51:59.321Z,17.28
2023-02-25T11:54:39.999Z,17.50
2023-02-25T11:57:20.330Z,17.49
2023-02-25T12:00:16.845Z,17.68
2023-02-25T12:02:49.488Z,17.69
2023-02-25T12:06:03.700Z,17.83
2023-02-25T12:09:14.273Z,17.96
2023-02-25T12:12:20.332Z,18.09
2023-02-25T12:15:13.228Z,18.08
2023-02-25T12:17:58.479Z,18.13
2023-02-25T12:20:37.703Z,18.11
2023-02-25T12:23:36.748Z,18.03
2023-02-25T12:26:49.267Z,18.12
2023-02-25T12:29:56.814Z,18.04
2023-02-25T12:33:22.655Z,18.21
2023-02-25T12:36:04.890Z,18.19
2023-02-25T12:39:11.239Z,17.95
2023-02-25T12:42:21.516Z,18.04
2023-02-25T12:45:24.829Z,18.00
2023-02-25T12:48:31.468Z,18.16
2023-02-25T12:51:27.678Z,18.05
2023-02-25T12:54:09.161Z,18.06
2023-02-25T12:57:03.509Z,18.00
2023-02-25T12:59:59.435Z,18.12
2023-02-25T13:02:47.768Z,18.34
2023-02-25T13:05:46.050Z,18.22
2023-02-25T13:08:40.703Z,18.15
2023-02-25T13:12:10.100Z,18.03
2023-02-25T13:15:05.218Z,18.22
2023-02-25T13:17:57.909Z,17.71
2023-02-25T13:20:49.398Z,17.79
2023-02-25T13:23:51.091Z,17.55
2023-02-25T13:26:51.741Z,17.74
2023-02-25T13:29:47.068Z,17.86
2023-02-25T13:32:29.950Z,17.91
2023-02-25T13:35:22.030Z,17.29
2023-02-25T13:38:30.149Z,17.48
2023-02-25T13:41:21.724Z,17.50
2023-02-25T13:44:08.845Z,17.69
2023-02-25T13:47:07.710Z,17.47
2023-02-25T13:50:15.161Z,16.98
2023-02-25T13:53:19.972Z,17.31
2023-02-25T13:56:11.288Z,17.60
2023-02-25T13:58:49.585Z,16.82
2023-02-25T14:01:33.558Z,17.72
2023-02-25T14:04:24.709Z,18.05
2023-02-25T14:07:30.384Z,18.23
2023-02-25T14:10:35.061Z,18.47
2023-02-25T14:13:21.567Z,18.50
2023-02-25T14:16:04.407Z,18.78
2023-02-25T14:18:50.920Z,18.60
2023-02-25T14:21:48.621Z,18.66
2023-02-25T14:24:37.085Z,18.63
2023-02-25T14:27:26.012Z,18.92
2023-02-25T14:30:53.838Z,19.02
2023-02-25T14:33:50.205Z,19.00
2023-02-25T14:36:33.126Z,19.45
2023-02-25T14:39:18.228Z,19.26
2023-02-25T14:42:01.655Z,19.42
2023-02-25T14:44:51.071Z,19.12
2023-02-25T14:47:41.258Z,19.63
2023-02-25T14:50:28.045Z,19.53
2023-02-25T14:53:14.061Z,19.82
2023-02-25T14:56:08.860Z,19.82
2023-02-25T14:58:39.209Z,19.72
2023-02-25T15:01:45.025Z,19.68
2023-02-25T15:04:31.107Z,19.16
2023-02-25T15:07:37.739Z,18.93
2023-02-25T15:10:28.007Z,18.73
2023-02-25T15:13:31.227Z,18.75
2023-02-25T15:16:52.485Z,18.53
2023-02-25T15:19:45.690Z,18.61
2023-02-25T15:22:25.330Z,18.29
2023-02-25T15:25:32.092Z,18.47
2023-02-25T15:28:02.870Z,18.29
2023-02-25T15:31:07.074Z,18.43
2023-02-25T15:33:58.759Z,18.59
2023-02-25T15:36:49.529Z,18.59
2023-02-25T15:39:42.000Z,18.66
2023-02-25T15:42:25.294Z,18.80
2023-02-25T15:45:44.982Z,18.87
2023-02-25T15:48:17.542Z,19.02
2023-02-25T15:50:47.421Z,19.21
2023-02-25T15:53:30.314Z,19.19
2023-02-25T15:56:12.114Z,19.24
2023-02-25T15:59:00.365Z,19.06
2023-02-25T16:01:39.935Z,19.25
2023-02-25T16:04:43.354Z,19.26
2023-02-25T16:07:17.519Z,19.36
2023-02-25T16:09:57.533Z,19.35
2023-02-25T16:12:25.841Z,19.24
2023-02-25T16:14:55.617Z,19.24
2023-02-25T16:17:41.729Z,19.17
2023-02-25T16:20:17.891Z,18.88
2023-02-25T16:22:48.559Z,18.68
2023-02-25T16:25:20.093Z,18.64
2023-02-25T16:28:18.725Z,18.34
2023-02-25T16:31:07.360Z,18.45
2023-02-25T16:33:49.504Z,18.56
2023-02-25T16:36:28.985Z,18.52
2023-02-25T16:39:07.879Z,18.54
2023-02-25T16:41:38.464Z,18.60
2023-02-25T16:44:09.347Z,18.35
2023-02-25T16:46:39.716Z,17.98
2023-02-25T16:49:30.283Z,17.93
2023-02-25T16:51:58.577Z,17.89
2023-02-25T16:54:38.436Z,17.73
2023-02-25T16:57:09.942Z,17.90
2023-02-25T16:59:40.700Z,17.84
2023-02-25T17:02:17.278Z,17.92
2023-02-25T17:04:50.796Z,17.69
2023-02-25T17:07:22.650Z,17.81
2023-02-25T17:10:07.336Z,17.76
2023-02-25T17:12:45.997Z,17.86
2023-02-25T17:15:28.942Z,17.86
2023-02-25T17:18:17.083Z,17.73
2023-02-25T17:20:53.123Z,17.64
2023-02-25T17:23:23.573Z,17.18
2023-02-25T17:25:53.013Z,17.25
2023-02-25T17:28:31.109Z,17.25
2023-02-25T17:31:20.962Z,17.26
2023-02-25T17:33:57.738Z,17.24
2023-02-25T17:36:31.768Z,17.12
2023-02-25T17:39:08.010Z,17.22
2023-02-25T17:42:00.886Z,17.26
2023-02-25T17:44:44.311Z,16.86
2023-02-25T17:47:23.143Z,16.73
2023-02-25T17:49:54.118Z,16.97
2023-02-25T17:52:30.931Z,17.04
2023-02-25T17:55:06.171Z,17.06
2023-02-25T17:57:34.694Z,16.79
2023-02-25T18:00:40.058Z,16.73
2023-02-25T18:03:13.919Z,16.53
2023-02-25T18:06:00.136Z,16.60
2023-02-25T18:09:08.268Z,16.70
2023-02-25T18:11:40.091Z,16.37
2023-02-25T18:14:38.564Z,16.60
2023-02-25T18:17:27.566Z,16.51
2023-02-25T18:20:03.947Z,16.65
2023-02-25T18:22:46.222Z,16.56
2023-02-25T18:25:45.706Z,16.65
2023-02-25T18:28:24.771Z,16.72
2023-02-25T18:31:03.305Z,16.79
2023-02-25T18:33:34.412Z,16.77
2023-02-25T18:36:08.357Z,16.59
2023-02-25T18:38:45.452Z,16.48
2023-02-25T18:41:24.386Z,16.50
2023-02-25T18:43:55.236Z,16.43
2023-02-25T18:46:23.338Z,16.20
2023-02-25T18:48:51.665Z,16.25
2023-02-25T18:51:19.634Z,16.12
2023-02-25T18:53:50.493Z,16.13
2023-02-25T18:56:18.550Z,16.20
2023-02-25T18:58:46.089Z,15.92
2023-02-25T19:01:26.780Z,15.88
2023-02-25T19:04:00.738Z,15.92
2023-02-25T19:06:36.826Z,15.98
2023-02-25T19:09:07.593Z,16.04
2023-02-25T19:11:41.359Z,16.04
2023-02-25T19:14:09.347Z,15.91
2023-02-25T19:16:37.354Z,16.03
2023-02-25T19:19:05.616Z,16.03
2023-02-25T19:21:44.585Z,16.02
2023-02-25T19:24:17.026Z,16.08
2023-02-25T19:26:46.630Z,16.08
2023-02-25T19:29:15.036Z,16.00
2023-02-25T19:31:47.070Z,15.74
2023-02-25T19:34:27.629Z,15.65
2023-02-25T19:36:57.608Z,15.71
2023-02-25T19:39:25.074Z,15.77
2023-02-25T19:42:03.526Z,15.50
2023-02-25T19:44:36.962Z,15.64
2023-02-25T19:47:12.401Z,15.73
2023-02-25T19:49:43.098Z,15.73
2023-02-25T19:52:15.845Z,15.82
2023-02-25T19:54:49.121Z,15.80
2023-02-25T19:57:33.228Z,15.80
2023-02-25T20:00:15.294Z,15.79
2023-02-25T20:02:45.728Z,15.83
2023-02-25T20:05:31.523Z,15.62
2023-02-25T20:08:01.443Z,15.76
2023-02-25T20:10:43.649Z,15.62
2023-02-25T20:13:12.971Z,15.65
2023-02-25T20:15:43.607Z,15.69
2023-02-25T20:18:20.965Z,15.59
2023-02-25T20:20:50.685Z,15.67
2023-02-25T20:23:25.815Z,15.67
2023-02-25T20:26:05.935Z,15.60
2023-02-25T20:28:48.780Z,15.56
2023-02-25T20:31:29.930Z,15.38
2023-02-25T20:34:05.353Z,15.15
2023-02-25T20:36:54.535Z,15.21
2023-02-25T20:39:41.702Z,15.34
2023-02-25T20:42:21.100Z,15.25
2023-02-25T20:44:57.618Z,15.27
2023-02-25T20:47:43.096Z,15.33
2023-02-25T20:50:18.605Z,15.26
2023-02-25T20:52:48.924Z,15.31
2023-02-25T20:55:19.789Z,15.38
2023-02-25T20:57:48.137Z,15.48
2023-02-25T21:00:23.772Z,15.43
2023-02-25T21:02:57.384Z,15.48
2023-02-25T21:05:28.327Z,15.27
2023-02-25T21:08:02.489Z,15.33
2023-02-25T21:10:35.232Z,15.15
2023-02-25T21:13:12.719Z,15.13
2023-02-25T21:15:48.937Z,15.15
2023-02-25T21:18:24.042Z,15.10
2023-02-25T21:21:13.825Z,15.06
2023-02-25T21:23:49.740Z,15.18
2023-02-25T21:26:20.083Z,15.15
2023-02-25T21:29:02.806Z,15.20
2023-02-25T21:31:33.217Z,15.15
2023-02-25T21:34:05.073Z,15.22
2023-02-25T21:36:35.628Z,15.26
2023-02-25T21:39:17.418Z,15.25
2023-02-25T21:41:47.653Z,15.27
2023-02-25T21:44:21.153Z,15.37
2023-02-25T21:46:57.841Z,15.44
2023-02-25T21:49:35.619Z,15.54
2023-02-25T21:52:08.006Z,15.58
2023-02-25T21:54:47.319Z,15.62
2023-02-25T21:57:40.337Z,15.61
2023-02-25T22:00:11.337Z,15.65
2023-02-25T22:02:50.656Z,15.60
2023-02-25T22:05:27.485Z,15.64
2023-02-25T22:07:58.781Z,15.67
2023-02-25T22:10:37.810Z,15.59
2023-02-25T22:13:08.880Z,15.58
2023-02-25T22:15:50.095Z,15.58
2023-02-25T22:18:17.789Z,15.52
2023-02-25T22:20:51.790Z,15.59
2023-02-25T22:23:22.248Z,15.73
2023-02-25T22:26:09.541Z,15.74
2023-02-25T22:28:49.293Z,15.76
2023-02-25T22:31:31.736Z,15.78
2023-02-25T22:33:59.291Z,15.78
2023-02-25T22:36:39.667Z,15.79
2023-02-25T22:39:13.833Z,15.76
2023-02-25T22:41:54.229Z,15.75
2023-02-25T22:44:33.382Z,15.76
2023-02-25T22:47:08.508Z,15.67
2023-02-25T22:49:36.003Z,15.72
2023-02-25T22:52:12.695Z,15.73
2023-02-25T22:54:49.437Z,15.71
2023-02-25T23:00:25.482Z,15.79
2023-02-25T23:03:01.512Z,15.79
2023-02-25T23:05:32.353Z,15.83
2023-02-25T23:08:06.218Z,15.77
2023-02-25T23:10:36.938Z,15.80
2023-02-25T23:13:08.603Z,15.79
2023-02-25T23:15:41.596Z,15.81
2023-02-25T23:18:24.143Z,15.79
2023-02-25T23:20:56.939Z,15.82
2023-02-25T23:23:41.914Z,15.83
2023-02-25T23:26:15.088Z,15.85
2023-02-25T23:28:46.216Z,15.81
2023-02-25T23:31:24.694Z,15.74
2023-02-25T23:34:03.805Z,15.67
2023-02-25T23:36:34.191Z,15.64
2023-02-25T23:39:06.482Z,15.70
2023-02-25T23:41:37.165Z,15.61
2023-02-25T23:44:09.723Z,15.64
2023-02-25T23:46:38.255Z,15.60
2023-02-25T23:49:13.226Z,15.62
2023-02-25T23:51:49.608Z,15.62
2023-02-25T23:54:22.816Z,15.58
2023-02-25T23:56:58.107Z,15.61
2023-02-25T23:59:31.252Z,15.39
